Portada
METAR-TAF:

METAR-TAF

Aeroports :

Alor Setar, Malàisia

latitud: 06-11-40N, longitud: 100-24-03E, altitud: 5 m

Observació

L'informe es va fer fa 23 minuts, a les 00:00 UTC
Vent calma
Temperatura 24°C
Humitat 100%
Pressió 1010 hPa
Visibilitat: 5000 m
Escasses núvols a una alçada menor de 100 ft
boirina

METAR: WMKA 040000Z 00000KT 5000 BR FEW000 24/24 Q1010

Hora: 08:23 (00:23 UTC)

Pronòstic

L'informe es va fer fa 1 hora i 23 minuts, a les 23:00 UTC
Pronòstic vàlid del 04 a les 00 UTC al 05 a les 00 UTC
Vent 3 kt amb direcció variable
Visibilitat 10 km o més
Escasses núvols a una alçada de 2000 ft
Evolucionant progressivament
l' 04 a les 03 UTC al 04 a les 05 UTC
Vent 6 kt del Est/Nord-Est
Evolucionant progressivament
l' 04 a les 09 UTC al 04 a les 11 UTC
Vent 3 kt amb direcció variable
Escasses núvols a una alçada de 3000 ft

TAF: WMKA 032300Z 0400/0500 VRB03KT 9999 FEW020 BECMG 0403/0405 07006KT BECMG 0409/0411 VRB03KT FEW030

Observacions i pronòstics meteorològics de més de 4000 aeroports (METAR i TAF).

Les estacions disponibles són els punts grocs i vermells al mapa.

Posi el ratolí al punt desitjat per veure el nom de l'estació.

Feu clic per veure les observacions i els pronòstics meteorològics.

Per canviar el mapa: feu clic els botons verds amb una creu de color negre per apropar; al botó verd amb un guió per allunyar la imatge; o en les fletxes verdes per a mapes adjacents.


METAR-TAF: